Jackson, MS (39296)

3:41 PM CST on February 27, 2015 (GMT -0600)
Chris' Weather Station | Change Station
CLOSE
Current Station
Personal Weather Station
Location: Jackson, MS
Elevation: 348 ft
Nearby Weather Stations
Active Advisory: Flood Warning

Elev 348 ft 32.35 °N, 90.17 °W | Updated 2 minutes ago

Clear
Clear
50.0 °F
Feels Like 50.0 °F
N
1.1
Wind Variable Wind from ESE

Today
High -- | Low -- °F
--% Chance of Precip.
Yesterday
High -- | Low -- °F
Precip. -- in
6:30 AM 5:56 PM
Waxing Gibbous, 72% visible
Pressure 30.36 in
Visibility 10.0 miles
Clouds Clear
Dew Point 28 °F
Humidity 43%
Rainfall 0.00 in
Snow Depth Not available.
UV 4 out of 12
Pollen 6.50 out of 12
Air Quality Not available.
Flu Activity Not available.
METAR KHKS 272053Z VRB06KT 10SM CLR 07/M04 A3037 RMK AO2 SLP281 60000 T00721044 56033

More Conditions Fewer Conditions

Pressure 30.36 in
Visibility 10.0 miles
Clouds Clear
Dew Point 28 °F
Humidity 43%
Rainfall 0.00 in
Snow Depth Not available.
UV 4 out of 12
Pollen 6.50 out of 12
Air Quality Not available.
Flu Activity Not available.
METAR KHKS 272053Z VRB06KT 10SM CLR 07/M04 A3037 RMK AO2 SLP281 60000 T00721044 56033

More Conditions Fewer Conditions

10-Day Weather Forecast

Almanac

Astronomy

Feb. 27, 2015 Rise Set
Actual Time
Civil Twilight
Nautical Twilight
Astronomical Twilight
Moon
Length of Visible Light
Length of Day
Tomorrow will be .
, % of the Moon is Illuminated

Today's Extremes

State Highs State Lows

Community

WunderPhotos

Upload Photos

1,800,844 photos uploaded!

WunderBlogs® & News

Nearby

Air Quality

  Air Quality AQ Index Pollutant
Not available.

Snow Depth

Station Depth Elevation

Earthquake Activity

City Distance Mag. Time & Date
Minimum magnitude displayed is 2.5.

Coastal Water Temperatures

Place Temperature

Nearby Weather Stations

Flood Warning
Statement as of 10:48 AM CST on February 27, 2015


The Flood Warning continues for
the Big Black River near Bovina
* until further notice.
* At 10:15 am Friday the stage was 27.9 feet.
* Minor flooding is forecast.
* Flood stage is 28.0 feet.
* Forecast... the river will rise above flood stage by this afternoon
and will continue to rise to near 30.1 feet by Wednesday morning.
* Impact... at 28.0 feet... low-lying agricultural land near the river
begins to flood.


              Flood observed forecast 7 am crest
location stg stg day time Sat sun Mon crest time date

Lower Big Black River
Bovina 28 27.9 Fri 10 am 28.2 28.9 29.6 30.1 06 am 03/04




Lat... Lon 3217 9093 3224 9078 3256 9064 3245 9052
      3218 9065 3204 9102